createdAt,value
2022-12-02T00:01:29.223Z,54.90
2022-12-02T00:03:59.066Z,50.00
2022-12-02T00:06:31.041Z,49.63
2022-12-02T00:09:15.155Z,52.10
2022-12-02T00:11:43.732Z,52.53
2022-12-02T00:14:21.937Z,49.80
2022-12-02T00:16:50.409Z,49.30
2022-12-02T00:19:20.495Z,53.40
2022-12-02T00:21:51.219Z,53.37
2022-12-02T00:24:21.153Z,53.13
2022-12-02T00:26:49.544Z,52.37
2022-12-02T00:29:18.075Z,52.50
2022-12-02T00:31:46.483Z,49.50
2022-12-02T00:34:16.676Z,49.27
2022-12-02T00:36:46.409Z,54.83
2022-12-02T00:39:16.383Z,50.50
2022-12-02T00:41:44.875Z,50.00
2022-12-02T00:44:31.166Z,54.20
2022-12-02T00:46:59.491Z,47.43
2022-12-02T00:49:28.816Z,45.17
2022-12-02T00:51:58.565Z,50.07
2022-12-02T00:54:27.062Z,51.57
2022-12-02T00:56:55.400Z,50.63
2022-12-02T00:59:24.440Z,52.13
2022-12-02T01:01:54.623Z,47.80
2022-12-02T01:04:22.997Z,48.30
2022-12-02T01:06:51.376Z,51.30
2022-12-02T01:09:21.242Z,51.10
2022-12-02T01:11:49.594Z,52.37
2022-12-02T01:14:17.926Z,52.57
2022-12-02T01:16:46.406Z,53.73
2022-12-02T01:19:14.816Z,53.73
2022-12-02T01:21:43.137Z,51.63
2022-12-02T01:24:11.811Z,56.43
2022-12-02T01:26:41.633Z,50.43
2022-12-02T01:29:10.111Z,56.80
2022-12-02T01:31:38.508Z,58.83
2022-12-02T01:34:08.446Z,61.50
2022-12-02T01:36:36.819Z,56.33
2022-12-02T01:39:05.681Z,55.77
2022-12-02T01:41:34.531Z,60.87
2022-12-02T01:44:04.232Z,53.73
2022-12-02T01:46:32.599Z,55.50
2022-12-02T01:49:00.941Z,59.47
2022-12-02T01:51:30.668Z,62.83
2022-12-02T01:53:59.217Z,59.60
2022-12-02T01:56:29.853Z,63.03
2022-12-02T01:58:58.369Z,63.23
2022-12-02T02:01:31.066Z,64.10
2022-12-02T02:04:01.045Z,63.13
2022-12-02T02:06:42.632Z,64.37
2022-12-02T02:09:12.061Z,70.70
2022-12-02T02:11:42.378Z,65.37
2022-12-02T02:14:15.095Z,68.70
2022-12-02T02:16:45.590Z,66.57
2022-12-02T02:19:16.451Z,71.57
2022-12-02T02:21:52.773Z,69.60
2022-12-02T02:24:24.467Z,73.93
2022-12-02T02:26:54.012Z,74.87
2022-12-02T02:29:22.734Z,77.27
2022-12-02T02:31:52.418Z,69.83
2022-12-02T02:34:21.062Z,73.73
2022-12-02T02:36:49.798Z,75.83
2022-12-02T02:39:19.523Z,74.53
2022-12-02T02:41:49.491Z,75.23
2022-12-02T02:44:24.059Z,76.97
2022-12-02T02:46:54.770Z,79.67
2022-12-02T02:49:23.413Z,84.23
2022-12-02T02:51:52.486Z,78.67
2022-12-02T02:54:21.274Z,78.63
2022-12-02T02:56:51.255Z,78.27
2022-12-02T02:59:20.035Z,79.10
2022-12-02T03:01:52.271Z,75.97
2022-12-02T03:04:24.266Z,79.43
2022-12-02T03:06:53.867Z,80.30
2022-12-02T03:09:25.672Z,81.17
2022-12-02T03:11:58.925Z,78.53
2022-12-02T03:14:28.320Z,81.80
2022-12-02T03:16:57.651Z,76.67
2022-12-02T03:19:26.436Z,82.37
2022-12-02T03:21:54.853Z,83.30
2022-12-02T03:24:24.231Z,76.27
2022-12-02T03:26:54.086Z,77.10
2022-12-02T03:29:22.605Z,81.10
2022-12-02T03:31:51.233Z,82.23
2022-12-02T03:34:19.869Z,83.00
2022-12-02T03:36:48.683Z,79.87
2022-12-02T03:39:17.588Z,79.23
2022-12-02T03:41:48.244Z,89.20
2022-12-02T03:44:18.359Z,69.33
2022-12-02T03:46:48.136Z,83.50
2022-12-02T03:49:19.020Z,80.07
2022-12-02T03:51:48.628Z,81.30
2022-12-02T03:54:17.876Z,81.53
2022-12-02T03:56:46.409Z,79.70
2022-12-02T03:59:23.465Z,74.17
2022-12-02T04:01:52.305Z,70.37
2022-12-02T04:04:20.724Z,73.30
2022-12-02T04:06:49.113Z,73.10
2022-12-02T04:09:17.441Z,79.33
2022-12-02T04:11:46.034Z,80.53
2022-12-02T04:14:14.356Z,77.13
2022-12-02T04:16:44.047Z,80.00
2022-12-02T04:19:13.450Z,83.97
2022-12-02T04:21:41.881Z,73.97
2022-12-02T04:24:10.776Z,77.17
2022-12-02T04:26:43.608Z,80.40
2022-12-02T04:29:12.598Z,80.43
2022-12-02T04:31:40.964Z,81.03
2022-12-02T04:34:10.719Z,72.50
2022-12-02T04:36:39.150Z,75.40
2022-12-02T04:39:07.445Z,77.53
2022-12-02T04:41:35.726Z,72.10
2022-12-02T04:44:04.819Z,70.00
2022-12-02T04:46:33.221Z,71.07
2022-12-02T04:49:01.615Z,74.30
2022-12-02T04:51:32.365Z,73.40
2022-12-02T04:54:00.778Z,75.13
2022-12-02T04:56:29.100Z,72.07
2022-12-02T04:58:57.484Z,74.60
2022-12-02T05:01:25.987Z,64.87
2022-12-02T05:03:54.405Z,78.10
2022-12-02T05:06:23.697Z,80.73
2022-12-02T05:08:53.576Z,70.57
2022-12-02T05:11:21.966Z,69.90
2022-12-02T05:13:50.362Z,81.10
2022-12-02T05:16:18.718Z,72.57
2022-12-02T05:18:47.131Z,81.33
2022-12-02T05:21:15.554Z,84.17
2022-12-02T05:23:44.001Z,78.83
2022-12-02T05:26:13.654Z,76.40
2022-12-02T05:28:42.369Z,78.13
2022-12-02T05:31:10.760Z,74.87
2022-12-02T05:33:39.238Z,75.40
2022-12-02T05:36:08.980Z,71.77
2022-12-02T05:38:37.300Z,73.50
2022-12-02T05:41:06.080Z,71.77
2022-12-02T05:43:40.660Z,75.60
2022-12-02T05:46:16.194Z,78.30
2022-12-02T05:48:45.214Z,69.27
2022-12-02T05:51:17.758Z,77.70
2022-12-02T05:53:48.979Z,78.87
2022-12-02T05:56:25.783Z,79.87
2022-12-02T05:59:02.137Z,82.50
2022-12-02T06:01:36.987Z,79.13
2022-12-02T06:04:06.639Z,81.50
2022-12-02T06:06:37.201Z,80.00
2022-12-02T06:09:15.064Z,79.87
2022-12-02T06:11:44.365Z,76.07
2022-12-02T06:14:18.322Z,74.43
2022-12-02T06:16:51.676Z,82.27
2022-12-02T06:19:35.856Z,74.03
2022-12-02T06:22:11.033Z,79.07
2022-12-02T06:24:39.335Z,76.67
2022-12-02T06:27:07.679Z,72.03
2022-12-02T06:29:37.631Z,78.23
2022-12-02T06:32:14.636Z,74.10
2022-12-02T06:34:45.362Z,70.13
2022-12-02T06:37:20.658Z,75.50
2022-12-02T06:40:19.827Z,72.20
2022-12-02T06:42:40.653Z,70.77
2022-12-02T06:45:29.723Z,79.10
2022-12-02T06:48:07.171Z,74.73
2022-12-02T06:50:42.755Z,76.33
2022-12-02T06:53:27.797Z,69.13
2022-12-02T06:56:02.344Z,73.43
2022-12-02T06:58:37.011Z,74.77
2022-12-02T07:01:23.189Z,78.53
2022-12-02T07:04:07.372Z,84.77
2022-12-02T07:06:40.124Z,76.30
2022-12-02T07:09:18.515Z,73.77
2022-12-02T07:11:51.374Z,80.13
2022-12-02T07:14:34.859Z,73.90
2022-12-02T07:17:15.052Z,72.93
2022-12-02T07:19:48.205Z,74.70
2022-12-02T07:22:19.272Z,76.10
2022-12-02T07:24:56.399Z,76.37
2022-12-02T07:27:30.325Z,82.60
2022-12-02T07:30:00.372Z,79.40
2022-12-02T07:32:30.179Z,83.17
2022-12-02T07:34:58.504Z,86.30
2022-12-02T07:37:26.884Z,72.93
2022-12-02T07:39:55.170Z,76.83
2022-12-02T07:42:23.600Z,83.93
2022-12-02T07:44:52.122Z,82.90
2022-12-02T07:47:20.555Z,78.23
2022-12-02T07:49:50.639Z,84.07
2022-12-02T07:52:18.989Z,92.07
2022-12-02T07:54:47.709Z,94.47
2022-12-02T07:57:16.024Z,89.10
2022-12-02T07:59:44.320Z,84.70
2022-12-02T08:02:12.660Z,88.60
2022-12-02T08:04:41.432Z,90.53
2022-12-02T08:07:11.391Z,86.90
2022-12-02T08:09:39.740Z,93.17
2022-12-02T08:12:08.583Z,87.23
2022-12-02T08:14:36.902Z,80.60
2022-12-02T08:17:05.296Z,89.93
2022-12-02T08:19:33.597Z,90.53
2022-12-02T08:22:01.914Z,92.33
2022-12-02T08:24:31.569Z,90.37
2022-12-02T08:26:59.903Z,80.07
2022-12-02T08:29:28.722Z,83.80
2022-12-02T08:31:57.123Z,91.83
2022-12-02T08:34:25.640Z,90.10
2022-12-02T08:36:54.313Z,95.83
2022-12-02T08:39:22.651Z,88.63
2022-12-02T08:41:52.389Z,88.47
2022-12-02T08:44:20.676Z,92.20
2022-12-02T08:46:54.096Z,83.57
2022-12-02T08:49:23.682Z,83.97
2022-12-02T08:51:52.124Z,80.80
2022-12-02T08:54:20.503Z,83.97
2022-12-02T08:56:49.370Z,80.80
2022-12-02T08:59:19.191Z,89.43
2022-12-02T09:01:47.856Z,79.20
2022-12-02T09:04:16.296Z,82.10
2022-12-02T09:06:44.645Z,89.70
2022-12-02T09:09:13.681Z,83.37
2022-12-02T09:11:42.152Z,82.67
2022-12-02T09:14:11.363Z,80.83
2022-12-02T09:16:41.091Z,78.20
2022-12-02T09:19:09.755Z,72.57
2022-12-02T09:21:38.109Z,75.20
2022-12-02T09:24:07.861Z,72.17
2022-12-02T09:26:36.211Z,73.63
2022-12-02T09:29:04.607Z,75.67
2022-12-02T09:31:32.972Z,71.77
2022-12-02T09:34:02.678Z,73.40
2022-12-02T09:36:31.012Z,76.77
2022-12-02T09:38:59.807Z,72.90
2022-12-02T09:41:28.962Z,68.60
2022-12-02T09:43:57.897Z,74.53
2022-12-02T09:46:27.527Z,73.67
2022-12-02T09:48:56.970Z,72.67
2022-12-02T09:51:26.955Z,72.40
2022-12-02T09:53:56.296Z,71.00
2022-12-02T09:56:24.858Z,71.93
2022-12-02T09:58:57.044Z,66.93
2022-12-02T10:01:28.015Z,74.93
2022-12-02T10:03:57.073Z,70.87
2022-12-02T10:06:29.741Z,75.20
2022-12-02T10:08:59.496Z,74.77
2022-12-02T10:11:33.595Z,70.43
2022-12-02T10:14:06.960Z,76.10
2022-12-02T10:16:36.166Z,73.00
2022-12-02T10:19:07.001Z,66.10
2022-12-02T10:21:36.808Z,69.27
2022-12-02T10:24:09.652Z,76.30
2022-12-02T10:26:48.129Z,73.17
2022-12-02T10:29:20.421Z,65.83
2022-12-02T10:31:58.868Z,66.10
2022-12-02T10:34:29.785Z,66.43
2022-12-02T10:37:19.072Z,72.87
2022-12-02T10:39:47.536Z,70.43
2022-12-02T10:42:21.405Z,69.70
2022-12-02T10:45:18.684Z,68.67
2022-12-02T10:47:47.547Z,74.83
2022-12-02T10:50:22.464Z,66.33
2022-12-02T10:52:56.057Z,73.53
2022-12-02T10:55:27.818Z,67.67
2022-12-02T10:57:56.659Z,73.63
2022-12-02T11:00:27.433Z,67.10
2022-12-02T11:02:58.587Z,72.80
2022-12-02T11:05:29.484Z,79.43
2022-12-02T11:08:03.058Z,73.67
2022-12-02T11:10:37.814Z,74.80
2022-12-02T11:13:24.102Z,71.70
2022-12-02T11:15:53.748Z,81.37
2022-12-02T11:18:58.684Z,77.50
2022-12-02T11:21:42.012Z,79.47
2022-12-02T11:24:39.167Z,71.07
2022-12-02T11:27:17.952Z,66.83
2022-12-02T11:30:37.972Z,67.90
2022-12-02T11:33:11.559Z,62.63
2022-12-02T11:36:15.008Z,69.33
2022-12-02T11:38:49.662Z,65.63
2022-12-02T11:41:21.515Z,68.70
2022-12-02T11:44:11.202Z,71.20
2022-12-02T11:46:49.731Z,67.83
2022-12-02T11:49:33.827Z,69.00
2022-12-02T11:52:23.597Z,72.37
2022-12-02T11:55:06.445Z,72.57
2022-12-02T11:57:48.463Z,70.10
2022-12-02T12:00:35.777Z,64.23
2022-12-02T12:03:16.351Z,65.17
2022-12-02T12:06:06.296Z,71.77
2022-12-02T12:08:35.043Z,64.53
2022-12-02T12:11:20.288Z,68.77
2022-12-02T12:14:06.497Z,70.33
2022-12-02T12:16:39.013Z,66.00
2022-12-02T12:19:28.068Z,73.80
2022-12-02T12:22:00.257Z,65.07
2022-12-02T12:24:37.588Z,60.33
2022-12-02T12:27:35.343Z,72.77
2022-12-02T12:30:07.492Z,67.60
2022-12-02T12:32:35.813Z,63.03
2022-12-02T12:35:04.135Z,59.20
2022-12-02T12:37:32.817Z,58.50
2022-12-02T12:40:01.163Z,62.53
2022-12-02T12:42:29.494Z,59.13
2022-12-02T12:44:57.890Z,58.57
2022-12-02T12:47:27.747Z,58.77
2022-12-02T12:49:56.562Z,60.17
2022-12-02T12:52:24.982Z,57.27
2022-12-02T12:54:53.405Z,61.60
2022-12-02T12:57:21.924Z,53.70
2022-12-02T12:59:50.329Z,52.00
2022-12-02T13:02:18.999Z,53.40
2022-12-02T13:04:48.874Z,52.83
2022-12-02T13:07:17.268Z,52.53
2022-12-02T13:09:45.680Z,52.30
2022-12-02T13:12:14.220Z,45.67
2022-12-02T13:14:42.951Z,54.23
2022-12-02T13:17:11.633Z,47.93
2022-12-02T13:19:40.015Z,52.20
2022-12-02T13:22:10.044Z,52.60
2022-12-02T13:24:43.144Z,51.63
2022-12-02T13:27:12.018Z,51.00
2022-12-02T13:29:40.578Z,50.00
2022-12-02T13:32:08.954Z,45.93
2022-12-02T13:34:37.325Z,49.63
2022-12-02T13:37:05.933Z,47.87
2022-12-02T13:39:35.864Z,52.93
2022-12-02T13:42:04.739Z,53.33
2022-12-02T13:44:34.281Z,47.93
2022-12-02T13:47:02.753Z,47.70
2022-12-02T13:49:31.033Z,45.60
2022-12-02T13:51:59.586Z,44.47
2022-12-02T13:54:28.532Z,43.80
2022-12-02T13:56:58.404Z,46.70
2022-12-02T13:59:26.785Z,42.77
2022-12-02T14:01:55.263Z,41.67
2022-12-02T14:04:23.707Z,38.23
2022-12-02T14:06:52.436Z,40.60
2022-12-02T14:09:20.747Z,41.13
2022-12-02T14:11:49.469Z,38.90
2022-12-02T14:14:19.651Z,41.23
2022-12-02T14:16:48.076Z,40.47
2022-12-02T14:19:16.457Z,39.10
2022-12-02T14:21:46.976Z,41.60
2022-12-02T14:24:15.626Z,34.70
2022-12-02T14:26:44.282Z,35.27
2022-12-02T14:29:12.893Z,37.33
2022-12-02T14:31:42.681Z,39.33
2022-12-02T14:34:13.047Z,39.40
2022-12-02T14:36:43.192Z,38.30
2022-12-02T14:39:12.531Z,36.57
2022-12-02T14:41:41.211Z,36.23
2022-12-02T14:44:09.623Z,33.53
2022-12-02T14:46:39.004Z,35.33
2022-12-02T14:49:38.559Z,39.23
2022-12-02T14:51:57.434Z,35.20
2022-12-02T14:54:26.107Z,36.67
2022-12-02T14:56:54.472Z,40.40
2022-12-02T14:59:22.790Z,42.27
2022-12-02T15:01:51.227Z,38.77
2022-12-02T15:04:21.060Z,41.20
2022-12-02T15:06:49.501Z,36.73
2022-12-02T15:09:17.924Z,40.40
2022-12-02T15:11:46.253Z,40.37
2022-12-02T15:14:14.550Z,40.37
2022-12-02T15:16:42.954Z,44.67
2022-12-02T15:19:14.406Z,46.17
2022-12-02T15:21:44.342Z,46.90
2022-12-02T15:24:12.966Z,44.30
2022-12-02T15:26:41.625Z,43.50
2022-12-02T15:29:10.344Z,44.60
2022-12-02T15:31:38.823Z,52.23
2022-12-02T15:34:07.501Z,47.30
2022-12-02T15:36:36.138Z,48.33
2022-12-02T15:39:06.443Z,41.93
2022-12-02T15:41:34.763Z,47.80
2022-12-02T15:44:03.426Z,43.47
2022-12-02T15:46:32.176Z,44.57
2022-12-02T15:49:00.917Z,43.97
2022-12-02T15:51:29.257Z,56.23
2022-12-02T15:53:57.627Z,51.90
2022-12-02T15:56:29.308Z,50.33
2022-12-02T15:58:58.028Z,47.10
2022-12-02T16:01:26.634Z,49.93
2022-12-02T16:03:55.116Z,56.67
2022-12-02T16:06:23.788Z,54.10
2022-12-02T16:08:55.466Z,61.37
2022-12-02T16:11:24.500Z,56.13
2022-12-02T16:13:54.169Z,57.30
2022-12-02T16:16:22.768Z,54.67
2022-12-02T16:18:51.273Z,65.00
2022-12-02T16:21:20.138Z,59.17
2022-12-02T16:23:48.483Z,56.50
2022-12-02T16:26:17.238Z,58.60
2022-12-02T16:28:46.864Z,62.60
2022-12-02T16:31:16.820Z,57.27
2022-12-02T16:33:45.283Z,62.93
2022-12-02T16:36:13.651Z,53.90
2022-12-02T16:38:42.021Z,57.70
2022-12-02T16:41:10.437Z,53.67
2022-12-02T16:43:39.114Z,54.43
2022-12-02T16:46:08.042Z,52.40
2022-12-02T16:48:37.883Z,59.63
2022-12-02T16:51:06.750Z,60.67
2022-12-02T16:53:35.089Z,63.13
2022-12-02T16:56:03.630Z,53.13
2022-12-02T16:58:31.995Z,59.37
2022-12-02T17:01:00.718Z,55.93
2022-12-02T17:03:29.249Z,56.73
2022-12-02T17:05:59.081Z,64.47
2022-12-02T17:08:27.538Z,63.80
2022-12-02T17:10:55.868Z,64.17
2022-12-02T17:13:24.611Z,63.23
2022-12-02T17:15:52.925Z,69.73
2022-12-02T17:18:21.437Z,57.07
2022-12-02T17:20:55.288Z,71.07
2022-12-02T17:23:25.542Z,69.60
2022-12-02T17:25:53.881Z,71.17
2022-12-02T17:28:22.475Z,66.90
2022-12-02T17:30:50.845Z,71.63
2022-12-02T17:33:19.267Z,72.27
2022-12-02T17:35:48.506Z,67.00
2022-12-02T17:38:16.839Z,63.57
2022-12-02T17:40:46.553Z,75.03
2022-12-02T17:43:15.211Z,68.50
2022-12-02T17:45:43.588Z,65.47
2022-12-02T17:48:11.929Z,65.77
2022-12-02T17:50:40.289Z,70.03
2022-12-02T17:53:08.601Z,66.50
2022-12-02T17:55:36.953Z,60.60
2022-12-02T17:58:06.595Z,70.73
2022-12-02T18:00:34.965Z,63.73
2022-12-02T18:03:03.326Z,65.97
2022-12-02T18:05:31.771Z,71.80
2022-12-02T18:08:00.234Z,68.27
2022-12-02T18:10:28.738Z,62.27
2022-12-02T18:12:57.077Z,66.43
2022-12-02T18:15:26.857Z,66.17
2022-12-02T18:17:56.320Z,64.37
2022-12-02T18:20:24.967Z,64.03
2022-12-02T18:22:53.273Z,65.37
2022-12-02T18:25:21.594Z,66.30
2022-12-02T18:27:49.830Z,74.20
2022-12-02T18:30:18.500Z,63.50
2022-12-02T18:32:49.012Z,72.40
2022-12-02T18:35:18.009Z,71.63
2022-12-02T18:37:46.576Z,66.03
2022-12-02T18:40:18.559Z,72.37
2022-12-02T18:42:47.540Z,67.60
2022-12-02T18:45:16.136Z,73.03
2022-12-02T18:47:44.434Z,68.90
2022-12-02T18:50:14.746Z,73.03
2022-12-02T18:52:43.467Z,73.97
2022-12-02T18:55:15.022Z,77.50
2022-12-02T18:57:43.858Z,73.80
2022-12-02T19:00:17.291Z,66.50
2022-12-02T19:02:46.043Z,72.60
2022-12-02T19:05:15.903Z,69.43
2022-12-02T19:07:44.272Z,72.23
2022-12-02T19:10:12.963Z,82.43
2022-12-02T19:12:41.208Z,73.17
2022-12-02T19:15:10.765Z,74.90
2022-12-02T19:17:39.060Z,79.10
2022-12-02T19:20:09.429Z,76.73
2022-12-02T19:22:39.066Z,71.17
2022-12-02T19:25:08.833Z,73.23
2022-12-02T19:30:25.751Z,75.10
2022-12-02T19:32:54.548Z,73.70
2022-12-02T19:35:23.006Z,73.43
2022-12-02T19:37:53.086Z,76.77
2022-12-02T19:40:21.799Z,77.63
2022-12-02T19:42:50.119Z,77.43
2022-12-02T19:45:18.632Z,72.73
2022-12-02T19:47:47.046Z,78.13
2022-12-02T19:50:16.283Z,73.57
2022-12-02T19:52:45.740Z,78.17
2022-12-02T19:55:17.051Z,73.90
2022-12-02T19:57:45.400Z,80.20
2022-12-02T20:00:17.795Z,81.40
2022-12-02T20:02:46.804Z,78.87
2022-12-02T20:05:17.799Z,78.27
2022-12-02T20:07:46.613Z,77.13
2022-12-02T20:10:16.864Z,73.53
2022-12-02T20:12:45.367Z,76.47
2022-12-02T20:15:14.900Z,76.37
2022-12-02T20:17:43.804Z,82.00
2022-12-02T20:20:14.983Z,81.97
2022-12-02T20:22:46.027Z,77.03
2022-12-02T20:25:15.687Z,86.20
2022-12-02T20:27:45.712Z,74.80
2022-12-02T20:30:17.212Z,74.10
2022-12-02T20:32:46.101Z,76.70
2022-12-02T20:35:14.634Z,86.53
2022-12-02T20:37:43.135Z,76.93
2022-12-02T20:40:15.814Z,79.87
2022-12-02T20:42:44.115Z,76.33
2022-12-02T20:45:13.710Z,74.57
2022-12-02T20:47:42.125Z,68.80
2022-12-02T20:50:11.427Z,75.77
2022-12-02T20:52:39.857Z,66.27
2022-12-02T20:55:10.280Z,79.63
2022-12-02T20:57:40.053Z,76.53
2022-12-02T21:00:10.224Z,74.50
2022-12-02T21:02:38.678Z,72.63
2022-12-02T21:05:09.873Z,86.40
2022-12-02T21:07:39.042Z,80.47
2022-12-02T21:10:09.495Z,67.30
2022-12-02T21:12:39.240Z,73.07
2022-12-02T21:15:08.794Z,82.37
2022-12-02T21:17:37.524Z,80.87
2022-12-02T21:20:07.533Z,78.80
2022-12-02T21:22:36.210Z,79.43
2022-12-02T21:25:04.686Z,70.73
2022-12-02T21:27:33.053Z,80.80
2022-12-02T21:30:03.142Z,76.90
2022-12-02T21:32:31.826Z,92.13
2022-12-02T21:35:03.647Z,77.03
2022-12-02T21:37:34.709Z,81.73
2022-12-02T21:40:03.151Z,89.37
2022-12-02T21:42:32.124Z,79.67
2022-12-02T21:45:01.834Z,70.60
2022-12-02T21:47:30.201Z,76.53
2022-12-02T21:49:58.866Z,73.27
2022-12-02T21:52:27.365Z,73.53
2022-12-02T21:54:55.755Z,75.07
2022-12-02T21:57:24.217Z,68.37
2022-12-02T21:59:52.658Z,75.30
2022-12-02T22:02:22.477Z,76.27
2022-12-02T22:04:51.255Z,73.83
2022-12-02T22:07:37.547Z,75.73
2022-12-02T22:10:08.109Z,67.40
2022-12-02T22:12:36.563Z,71.33
2022-12-02T22:15:05.920Z,78.43
2022-12-02T22:17:35.916Z,82.77
2022-12-02T22:20:05.520Z,82.57
2022-12-02T22:22:34.682Z,76.57
2022-12-02T22:25:03.031Z,65.93
2022-12-02T22:27:31.338Z,71.23
2022-12-02T22:30:00.104Z,74.23
2022-12-02T22:32:28.556Z,72.50
2022-12-02T22:34:58.256Z,77.97
2022-12-02T22:37:26.574Z,67.97
2022-12-02T22:39:55.224Z,73.30
2022-12-02T22:42:24.037Z,78.70
2022-12-02T22:44:52.653Z,69.03
2022-12-02T22:47:22.178Z,81.23
2022-12-02T22:49:50.522Z,71.13
2022-12-02T22:52:28.954Z,78.20
2022-12-02T22:54:57.532Z,74.80
2022-12-02T22:57:25.889Z,74.37
2022-12-02T22:59:54.514Z,75.30
2022-12-02T23:02:22.916Z,74.23
2022-12-02T23:04:51.972Z,71.57
2022-12-02T23:07:21.948Z,76.10
2022-12-02T23:09:50.317Z,73.33
2022-12-02T23:12:18.682Z,81.43
2022-12-02T23:14:47.068Z,76.87
2022-12-02T23:17:15.413Z,74.53
2022-12-02T23:19:44.020Z,74.10
2022-12-02T23:22:12.762Z,75.00
2022-12-02T23:24:42.513Z,79.93
2022-12-02T23:27:11.110Z,73.83
2022-12-02T23:29:39.507Z,67.30
2022-12-02T23:32:07.953Z,70.83
2022-12-02T23:34:36.433Z,74.93
2022-12-02T23:37:04.787Z,71.87
2022-12-02T23:39:33.149Z,73.37
2022-12-02T23:42:02.843Z,75.53
2022-12-02T23:44:31.846Z,67.37
2022-12-02T23:47:00.202Z,75.10
2022-12-02T23:49:28.605Z,67.17
2022-12-02T23:51:56.914Z,73.77
2022-12-02T23:54:25.603Z,69.13
2022-12-02T23:56:54.035Z,70.17
2022-12-02T23:59:23.799Z,68.80
